Airfield :
LOGIN :

Register | Disclaimer

   EN    FR    IT 

 










Legend :    VFR   Marginal VFR   IFR   Intensive IFR   Very Intensive IFR
Visi :
Ceiling :
>= 8 km
>= 3000ft
5 to 8 km
1000 to 3000 ft
1500m to 5 km
500 to 1000 ft
800 to 1500m
200 to 500 ft
< 800m
< 200 ft
Symbols :   Thunderstorms  Fog  Heavy snow  Heavy precipitations  Wind > 20 kt
SIGMETs :     Misc.  Thunderstorms  Icing  Turbulence  Mountain Waves  Volcanic Ashes






- Airport Elevation : 28 ft
- IATA code : OLA


ENOL - Ørland

CURRENT METAR :
  • 210720Z 22021KT 9999 VCSH BKN030 05/00 Q0984 TEMPO 24025G35KT 4000 SHRASN BKN020CB

EXPIRED METARs :
  • 210650Z 22018KT 9999 -SHRA SCT030 BKN055 05/M00 Q0983 TEMPO 24025G35KT 4000 SHRASN BKN020CB
  • 210620Z 20014KT 9999 SCT040 SCT055 04/M01 Q0983 TEMPO 24025G35KT 4000 SHRASN BKN020CB
  • 210550Z 21015KT 9999 FEW030 SCT040 BKN055 04/M01 Q0983 TEMPO 24025G35KT 4000 SHRASN BKN020CB
  • 210520Z 21016KT 9999 FEW030 SCT040 04/M01 Q0983 TEMPO 24025G35KT 4000 SHRASN BKN020CB
  • 210450Z 18010KT 9999 BKN040 03/02 Q0984

TAF TAF ENOL
Valid from the 21 at 06:00 until the 22 at 06:00 UTC


2106/2206 20010KT 9999 FEW020TCU BKN030
TEMPO 2106/2110 24025G35KT 4000 SHRASN BKN020CB
BECMG 2110/2112 14018KT
BECMG 2113/2115 24025KT
TEMPO 2114/2124 24032G48KT
TEMPO 2114/2206 4000 SHRAGS BKN014CB
PROB40
TEMPO 2118/2206 TS
TEMPO 2200/2206 24025G35KT



MET'MAP, your aeronautical weather chart ! - Copyright ORBIFLY December 2007 - Disclaimer

ORBIFLY MET'MAP TEAM :

Programming & Development : Alexandra Zaïnal
Concept & original design : Baudouin d'Aumeries
Assistance for programming : Marc-Olivier Méhu
Technical & hardware support : Manuel Goepfert

Contact : metmap@orbifly.com




SOURCES & CREDITS :

   NOAA